Raiatea — V7VA3 — position and weather

sailwx.info

Track history (hours):
 
Tides and Currents Weather Stations Pressure Air Temp Water Temp Dewpoint Dewpoint Depression Visibility Wind Speed Wind Dir Waves Ship Positions

Raiatea

Last reported at 2015-Aug-19 15:22 UTC. Time now 2015-Aug-29 23:37 UTC.
Position N 22°03' E 114°29'.
Warning: this ship's position is 10 days out of date.

Length 292 m; draft 8.5 m.

Type: Cargo ship. MMSI: 538004070.

Date/timePositionNaut miles runAvg speedWind from/ knotsBaromVisibWave heightAir tempDewpointWater temp
2015-Aug-19 15:22N 22°03' E 114°29'911.6
2015-Aug-19 14:33N 22°07' E 114°20'7 0.5
2015-Aug-19 01:12N 22°08' E 114°12'4 5.4
2015-Aug-19 00:26N 22°05' E 114°10'8 9.0
2015-Aug-18 23:31N 22°01' E 114°02'  
2015-Aug-16 13:22N 21°57' E 113°53'1011.2
2015-Aug-16 12:31N 22°07' E 113°51'1111.0
2015-Aug-16 11:33N 22°17' E 113°48'1312.9
2015-Aug-16 10:33N 22°29' E 113°45'1513.8
2015-Aug-16 09:30N 22°43' E 113°40'1010.6
2015-Aug-16 08:33N 22°51' E 113°34'1 0.9
2015-Aug-16 07:32N 22°52' E 113°34'9 9.1
2015-Aug-16 06:33N 23°01' E 113°31'0 0.3
2015-Aug-16 05:17N 23°01' E 113°31'0 0.0
2015-Aug-16 04:17N 23°01' E 113°31'0 0.0
2015-Aug-16 03:23N 23°01' E 113°31'0 0.0
2015-Aug-16 02:23N 23°01' E 113°31'0 0.0
2015-Aug-16 01:23N 23°01' E 113°31'0 0.0
2015-Aug-16 00:17N 23°01' E 113°31'0 0.0
2015-Aug-15 23:29N 23°01' E 113°31'0 0.0
2015-Aug-15 22:29N 23°01' E 113°31'0 0.0
2015-Aug-15 21:29N 23°01' E 113°31'0 0.0
2015-Aug-15 20:23N 23°01' E 113°31'0 0.0
2015-Aug-15 19:29N 23°01' E 113°31'0 0.0
2015-Aug-15 18:29N 23°01' E 113°31'0 0.0
2015-Aug-15 17:29N 23°01' E 113°31'0 0.0
2015-Aug-15 16:29N 23°01' E 113°31'0 0.0
2015-Aug-15 15:29N 23°01' E 113°31'0 0.0
2015-Aug-15 14:05N 23°01' E 113°31'0 0.0
2015-Aug-15 13:29N 23°01' E 113°31'0 0.0
2015-Aug-15 12:29N 23°01' E 113°31'0 0.0
2015-Aug-15 11:29N 23°01' E 113°31'0 0.0
2015-Aug-15 10:23N 23°01' E 113°31'0 0.0
2015-Aug-15 09:17N 23°01' E 113°31'0 0.0
2015-Aug-15 08:29N 23°01' E 113°31'0 0.0
2015-Aug-15 07:29N 23°01' E 113°31'0 0.0
2015-Aug-15 06:29N 23°01' E 113°31'0 0.0
2015-Aug-15 04:29N 23°01' E 113°31'0 0.0
2015-Aug-15 03:29N 23°01' E 113°31'0 0.0
2015-Aug-15 02:29N 23°01' E 113°31'0 0.0
2015-Aug-15 01:29N 23°01' E 113°31'0 0.0
2015-Aug-15 00:23N 23°01' E 113°31'0 0.0
2015-Aug-14 23:29N 23°01' E 113°31'0 0.0
2015-Aug-14 22:23N 23°01' E 113°31'0 0.0
2015-Aug-14 21:29N 23°01' E 113°31'0 0.0
2015-Aug-14 19:23N 23°01' E 113°31'0 0.0
2015-Aug-14 18:29N 23°01' E 113°31'0 0.0
2015-Aug-14 17:29N 23°01' E 113°31'0 0.0
2015-Aug-14 15:17N 23°01' E 113°31'0 0.0
2015-Aug-14 14:24N 23°01' E 113°31'0 0.0
2015-Aug-14 13:24N 23°01' E 113°31'0 0.0
2015-Aug-14 12:12N 23°01' E 113°31'0 0.0
2015-Aug-14 11:12N 23°01' E 113°31'0 0.0
2015-Aug-14 10:30N 23°01' E 113°31'0 0.0
2015-Aug-14 09:30N 23°01' E 113°31'0 0.0
2015-Aug-14 08:30N 23°01' E 113°31'0 0.0
2015-Aug-14 07:24N 23°01' E 113°31'0 0.0
2015-Aug-14 06:18N 23°01' E 113°31'0 0.0
2015-Aug-14 05:18N 23°01' E 113°31'0 0.0
2015-Aug-14 04:33N 23°01' E 113°31'5 5.2
2015-Aug-14 03:31N 22°56' E 113°33'9 9.6
2015-Aug-14 02:33N 22°48' E 113°37'10 9.8
2015-Aug-14 01:32N 22°39' E 113°42'1010.3
2015-Aug-14 00:33N 22°29' E 113°45'1211.7
2015-Aug-13 23:33N 22°18' E 113°48'1211.7
2015-Aug-13 22:33N 22°06' E 113°51'8 7.5
2015-Aug-13 21:32N 21°59' E 113°53'  
Track history (hours):
 
Tides and Currents Weather Stations Pressure Air Temp Water Temp Dewpoint Dewpoint Depression Visibility Wind Speed Wind Dir Waves Ship Positions

Raiatea

Last reported at 2015-Aug-19 15:22 UTC. Time now 2015-Aug-29 23:37 UTC.
Position N 22°03' E 114°29'.
Warning: this ship's position is 10 days out of date.

Length 292 m; draft 8.5 m.

Type: Cargo ship. MMSI: 538004070.

Date/timePositionNaut miles runAvg speedWind from/ knotsBaromVisibWave heightAir tempDewpointWater temp
2015-Aug-19 15:22N 22°03' E 114°29'911.6
2015-Aug-19 14:33N 22°07' E 114°20'7 0.5
2015-Aug-19 01:12N 22°08' E 114°12'4 5.4
2015-Aug-19 00:26N 22°05' E 114°10'8 9.0
2015-Aug-18 23:31N 22°01' E 114°02'  
2015-Aug-16 13:22N 21°57' E 113°53'1011.2
2015-Aug-16 12:31N 22°07' E 113°51'1111.0
2015-Aug-16 11:33N 22°17' E 113°48'1312.9
2015-Aug-16 10:33N 22°29' E 113°45'1513.8
2015-Aug-16 09:30N 22°43' E 113°40'1010.6
2015-Aug-16 08:33N 22°51' E 113°34'1 0.9
2015-Aug-16 07:32N 22°52' E 113°34'9 9.1
2015-Aug-16 06:33N 23°01' E 113°31'0 0.3
2015-Aug-16 05:17N 23°01' E 113°31'0 0.0
2015-Aug-16 04:17N 23°01' E 113°31'0 0.0
2015-Aug-16 03:23N 23°01' E 113°31'0 0.0
2015-Aug-16 02:23N 23°01' E 113°31'0 0.0
2015-Aug-16 01:23N 23°01' E 113°31'0 0.0
2015-Aug-16 00:17N 23°01' E 113°31'0 0.0
2015-Aug-15 23:29N 23°01' E 113°31'0 0.0
2015-Aug-15 22:29N 23°01' E 113°31'0 0.0
2015-Aug-15 21:29N 23°01' E 113°31'0 0.0
2015-Aug-15 20:23N 23°01' E 113°31'0 0.0
2015-Aug-15 19:29N 23°01' E 113°31'0 0.0
2015-Aug-15 18:29N 23°01' E 113°31'0 0.0
2015-Aug-15 17:29N 23°01' E 113°31'0 0.0
2015-Aug-15 16:29N 23°01' E 113°31'0 0.0
2015-Aug-15 15:29N 23°01' E 113°31'0 0.0
2015-Aug-15 14:05N 23°01' E 113°31'0 0.0
2015-Aug-15 13:29N 23°01' E 113°31'0 0.0
2015-Aug-15 12:29N 23°01' E 113°31'0 0.0
2015-Aug-15 11:29N 23°01' E 113°31'0 0.0
2015-Aug-15 10:23N 23°01' E 113°31'0 0.0
2015-Aug-15 09:17N 23°01' E 113°31'0 0.0
2015-Aug-15 08:29N 23°01' E 113°31'0 0.0
2015-Aug-15 07:29N 23°01' E 113°31'0 0.0
2015-Aug-15 06:29N 23°01' E 113°31'0 0.0
2015-Aug-15 04:29N 23°01' E 113°31'0 0.0
2015-Aug-15 03:29N 23°01' E 113°31'0 0.0
2015-Aug-15 02:29N 23°01' E 113°31'0 0.0
2015-Aug-15 01:29N 23°01' E 113°31'0 0.0
2015-Aug-15 00:23N 23°01' E 113°31'0 0.0
2015-Aug-14 23:29N 23°01' E 113°31'0 0.0
2015-Aug-14 22:23N 23°01' E 113°31'0 0.0
2015-Aug-14 21:29N 23°01' E 113°31'0 0.0
2015-Aug-14 19:23N 23°01' E 113°31'0 0.0
2015-Aug-14 18:29N 23°01' E 113°31'0 0.0
2015-Aug-14 17:29N 23°01' E 113°31'0 0.0
2015-Aug-14 15:17N 23°01' E 113°31'0 0.0
2015-Aug-14 14:24N 23°01' E 113°31'0 0.0
2015-Aug-14 13:24N 23°01' E 113°31'0 0.0
2015-Aug-14 12:12N 23°01' E 113°31'0 0.0
2015-Aug-14 11:12N 23°01' E 113°31'0 0.0
2015-Aug-14 10:30N 23°01' E 113°31'0 0.0
2015-Aug-14 09:30N 23°01' E 113°31'0 0.0
2015-Aug-14 08:30N 23°01' E 113°31'0 0.0
2015-Aug-14 07:24N 23°01' E 113°31'0 0.0
2015-Aug-14 06:18N 23°01' E 113°31'0 0.0
2015-Aug-14 05:18N 23°01' E 113°31'0 0.0
2015-Aug-14 04:33N 23°01' E 113°31'5 5.2
2015-Aug-14 03:31N 22°56' E 113°33'9 9.6
2015-Aug-14 02:33N 22°48' E 113°37'10 9.8
2015-Aug-14 01:32N 22°39' E 113°42'1010.3
2015-Aug-14 00:33N 22°29' E 113°45'1211.7
2015-Aug-13 23:33N 22°18' E 113°48'1211.7
2015-Aug-13 22:33N 22°06' E 113°51'8 7.5
2015-Aug-13 21:32N 21°59' E 113°53'  

Dump ship's entire track history